sensor_id;sensor_type;location;lat;lon;timestamp;temperature;humidity
12726;DHT22;6427;49.754;6.106;2022-11-15T00:02:25;11.40;99.90
12726;DHT22;6427;49.754;6.106;2022-11-15T00:04:53;11.40;99.90
12726;DHT22;6427;49.754;6.106;2022-11-15T00:07:20;11.50;99.90
12726;DHT22;6427;49.754;6.106;2022-11-15T00:09:48;11.40;99.90
12726;DHT22;6427;49.754;6.106;2022-11-15T00:12:15;11.40;99.90
12726;DHT22;6427;49.754;6.106;2022-11-15T00:14:43;11.50;99.90
12726;DHT22;6427;49.754;6.106;2022-11-15T00:17:11;11.50;99.90
12726;DHT22;6427;49.754;6.106;2022-11-15T00:19:40;11.50;99.90
12726;DHT22;6427;49.754;6.106;2022-11-15T00:22:07;11.50;99.90
12726;DHT22;6427;49.754;6.106;2022-11-15T00:24:35;11.50;99.90
12726;DHT22;6427;49.754;6.106;2022-11-15T00:27:03;11.50;99.90
12726;DHT22;6427;49.754;6.106;2022-11-15T00:29:30;11.60;99.90
12726;DHT22;6427;49.754;6.106;2022-11-15T00:31:58;11.60;99.90
12726;DHT22;6427;49.754;6.106;2022-11-15T00:34:25;11.70;99.90
12726;DHT22;6427;49.754;6.106;2022-11-15T00:36:54;12.00;99.90
12726;DHT22;6427;49.754;6.106;2022-11-15T00:39:21;12.00;99.90
12726;DHT22;6427;49.754;6.106;2022-11-15T00:41:49;11.90;99.90
12726;DHT22;6427;49.754;6.106;2022-11-15T00:44:16;11.80;99.90
12726;DHT22;6427;49.754;6.106;2022-11-15T00:46:44;11.80;99.90
12726;DHT22;6427;49.754;6.106;2022-11-15T00:49:12;11.80;99.90
12726;DHT22;6427;49.754;6.106;2022-11-15T00:51:40;11.70;99.90
12726;DHT22;6427;49.754;6.106;2022-11-15T00:54:07;11.70;99.90
12726;DHT22;6427;49.754;6.106;2022-11-15T00:56:35;11.70;99.90
12726;DHT22;6427;49.754;6.106;2022-11-15T00:59:02;11.70;99.90
12726;DHT22;6427;49.754;6.106;2022-11-15T01:01:31;11.70;99.90
12726;DHT22;6427;49.754;6.106;2022-11-15T01:03:59;11.70;99.90
12726;DHT22;6427;49.754;6.106;2022-11-15T01:06:27;11.70;99.90
12726;DHT22;6427;49.754;6.106;2022-11-15T01:08:54;11.70;99.90
12726;DHT22;6427;49.754;6.106;2022-11-15T01:11:23;11.70;99.90
12726;DHT22;6427;49.754;6.106;2022-11-15T01:13:51;11.70;99.90
12726;DHT22;6427;49.754;6.106;2022-11-15T01:16:19;11.70;99.90
12726;DHT22;6427;49.754;6.106;2022-11-15T01:18:46;11.70;99.90
12726;DHT22;6427;49.754;6.106;2022-11-15T01:21:15;11.70;99.90
12726;DHT22;6427;49.754;6.106;2022-11-15T01:23:41;11.70;99.90
12726;DHT22;6427;49.754;6.106;2022-11-15T01:26:09;11.70;99.90
12726;DHT22;6427;49.754;6.106;2022-11-15T01:28:37;11.70;99.90
12726;DHT22;6427;49.754;6.106;2022-11-15T01:31:06;11.80;99.90
12726;DHT22;6427;49.754;6.106;2022-11-15T01:33:33;11.70;99.90
12726;DHT22;6427;49.754;6.106;2022-11-15T01:36:02;11.80;99.90
12726;DHT22;6427;49.754;6.106;2022-11-15T01:38:28;11.80;99.90
12726;DHT22;6427;49.754;6.106;2022-11-15T01:40:56;11.80;99.90
12726;DHT22;6427;49.754;6.106;2022-11-15T01:43:26;11.80;99.90
12726;DHT22;6427;49.754;6.106;2022-11-15T01:45:56;11.80;99.90
12726;DHT22;6427;49.754;6.106;2022-11-15T01:48:20;11.90;99.90
12726;DHT22;6427;49.754;6.106;2022-11-15T01:50:47;11.80;99.90
12726;DHT22;6427;49.754;6.106;2022-11-15T01:53:15;11.90;99.90
12726;DHT22;6427;49.754;6.106;2022-11-15T01:55:43;11.90;99.90
12726;DHT22;6427;49.754;6.106;2022-11-15T01:58:11;11.90;99.90
12726;DHT22;6427;49.754;6.106;2022-11-15T02:00:38;12.10;99.90
12726;DHT22;6427;49.754;6.106;2022-11-15T02:03:06;12.20;99.90
12726;DHT22;6427;49.754;6.106;2022-11-15T02:05:34;12.20;99.90
12726;DHT22;6427;49.754;6.106;2022-11-15T02:08:01;12.20;99.90
12726;DHT22;6427;49.754;6.106;2022-11-15T02:10:29;12.20;99.90
12726;DHT22;6427;49.754;6.106;2022-11-15T02:12:56;12.10;99.90
12726;DHT22;6427;49.754;6.106;2022-11-15T02:15:26;12.10;99.90
12726;DHT22;6427;49.754;6.106;2022-11-15T02:17:58;12.10;99.90
12726;DHT22;6427;49.754;6.106;2022-11-15T02:21:05;12.10;99.90
12726;DHT22;6427;49.754;6.106;2022-11-15T02:32:40;12.00;99.90
12726;DHT22;6427;49.754;6.106;2022-11-15T02:34:34;12.00;99.90
12726;DHT22;6427;49.754;6.106;2022-11-15T02:39:46;12.00;99.90
12726;DHT22;6427;49.754;6.106;2022-11-15T02:42:13;11.90;99.90
12726;DHT22;6427;49.754;6.106;2022-11-15T02:44:41;11.90;99.90
12726;DHT22;6427;49.754;6.106;2022-11-15T02:47:07;11.90;99.90
12726;DHT22;6427;49.754;6.106;2022-11-15T02:49:47;11.90;99.90
12726;DHT22;6427;49.754;6.106;2022-11-15T02:52:17;11.90;99.90
12726;DHT22;6427;49.754;6.106;2022-11-15T02:54:54;11.90;99.90
12726;DHT22;6427;49.754;6.106;2022-11-15T02:57:29;12.10;99.90
12726;DHT22;6427;49.754;6.106;2022-11-15T02:59:55;12.10;99.90
12726;DHT22;6427;49.754;6.106;2022-11-15T03:06:10;12.10;99.90
12726;DHT22;6427;49.754;6.106;2022-11-15T03:10:42;12.00;99.90
12726;DHT22;6427;49.754;6.106;2022-11-15T03:16:15;11.90;99.90
12726;DHT22;6427;49.754;6.106;2022-11-15T03:18:41;11.90;99.90
12726;DHT22;6427;49.754;6.106;2022-11-15T03:21:08;11.80;99.90
12726;DHT22;6427;49.754;6.106;2022-11-15T03:23:34;11.80;99.90
12726;DHT22;6427;49.754;6.106;2022-11-15T03:26:02;11.80;99.90
12726;DHT22;6427;49.754;6.106;2022-11-15T03:28:34;12.00;99.90
12726;DHT22;6427;49.754;6.106;2022-11-15T03:31:00;12.00;99.90
12726;DHT22;6427;49.754;6.106;2022-11-15T03:33:27;11.90;99.90
12726;DHT22;6427;49.754;6.106;2022-11-15T03:35:55;11.80;99.90
12726;DHT22;6427;49.754;6.106;2022-11-15T03:38:26;11.90;99.90
12726;DHT22;6427;49.754;6.106;2022-11-15T03:40:58;11.90;99.90
12726;DHT22;6427;49.754;6.106;2022-11-15T03:43:51;11.80;99.90
12726;DHT22;6427;49.754;6.106;2022-11-15T03:46:52;11.80;99.90
12726;DHT22;6427;49.754;6.106;2022-11-15T03:48:52;11.70;99.90
12726;DHT22;6427;49.754;6.106;2022-11-15T03:51:19;11.70;99.90
12726;DHT22;6427;49.754;6.106;2022-11-15T03:53:46;11.60;99.90
12726;DHT22;6427;49.754;6.106;2022-11-15T03:56:14;11.80;99.90
12726;DHT22;6427;49.754;6.106;2022-11-15T03:58:41;11.80;99.90
12726;DHT22;6427;49.754;6.106;2022-11-15T04:01:09;11.70;99.90
12726;DHT22;6427;49.754;6.106;2022-11-15T04:03:36;11.70;99.90
12726;DHT22;6427;49.754;6.106;2022-11-15T04:06:05;11.60;99.90
12726;DHT22;6427;49.754;6.106;2022-11-15T04:08:32;11.60;99.90
12726;DHT22;6427;49.754;6.106;2022-11-15T04:11:01;11.50;99.90
12726;DHT22;6427;49.754;6.106;2022-11-15T04:13:28;11.50;99.90
12726;DHT22;6427;49.754;6.106;2022-11-15T04:15:56;11.50;99.90
12726;DHT22;6427;49.754;6.106;2022-11-15T04:18:24;11.40;99.90
12726;DHT22;6427;49.754;6.106;2022-11-15T04:20:52;11.40;99.90
12726;DHT22;6427;49.754;6.106;2022-11-15T04:23:37;11.40;99.90
12726;DHT22;6427;49.754;6.106;2022-11-15T04:26:18;11.30;99.90
12726;DHT22;6427;49.754;6.106;2022-11-15T04:28:44;11.30;99.90
12726;DHT22;6427;49.754;6.106;2022-11-15T04:31:30;11.30;99.90
12726;DHT22;6427;49.754;6.106;2022-11-15T04:33:58;11.50;99.90
12726;DHT22;6427;49.754;6.106;2022-11-15T04:36:25;11.50;99.90
12726;DHT22;6427;49.754;6.106;2022-11-15T04:39:11;11.70;99.90
12726;DHT22;6427;49.754;6.106;2022-11-15T04:41:39;11.50;99.90
12726;DHT22;6427;49.754;6.106;2022-11-15T04:44:07;11.50;99.90
12726;DHT22;6427;49.754;6.106;2022-11-15T04:46:34;11.40;99.90
12726;DHT22;6427;49.754;6.106;2022-11-15T04:49:03;11.20;99.90
12726;DHT22;6427;49.754;6.106;2022-11-15T04:51:30;11.20;99.90
12726;DHT22;6427;49.754;6.106;2022-11-15T04:53:58;11.10;99.90
12726;DHT22;6427;49.754;6.106;2022-11-15T04:56:26;11.00;99.90
12726;DHT22;6427;49.754;6.106;2022-11-15T04:58:54;10.90;99.90
12726;DHT22;6427;49.754;6.106;2022-11-15T05:01:21;10.90;99.90
12726;DHT22;6427;49.754;6.106;2022-11-15T05:03:49;10.80;99.90
12726;DHT22;6427;49.754;6.106;2022-11-15T05:06:35;11.00;99.90
12726;DHT22;6427;49.754;6.106;2022-11-15T05:09:03;11.00;99.90
12726;DHT22;6427;49.754;6.106;2022-11-15T05:14:17;10.80;99.90
12726;DHT22;6427;49.754;6.106;2022-11-15T05:16:44;10.70;99.90
12726;DHT22;6427;49.754;6.106;2022-11-15T05:19:12;10.90;99.90
12726;DHT22;6427;49.754;6.106;2022-11-15T05:21:40;11.00;99.90
12726;DHT22;6427;49.754;6.106;2022-11-15T05:24:09;11.00;99.90
12726;DHT22;6427;49.754;6.106;2022-11-15T05:26:35;10.90;99.90
12726;DHT22;6427;49.754;6.106;2022-11-15T05:29:03;10.80;99.90
12726;DHT22;6427;49.754;6.106;2022-11-15T05:31:31;10.70;99.90
12726;DHT22;6427;49.754;6.106;2022-11-15T05:33:59;10.70;99.90
12726;DHT22;6427;49.754;6.106;2022-11-15T05:36:31;10.60;99.90
12726;DHT22;6427;49.754;6.106;2022-11-15T05:38:57;10.50;99.90
12726;DHT22;6427;49.754;6.106;2022-11-15T05:41:26;10.50;99.90
12726;DHT22;6427;49.754;6.106;2022-11-15T05:43:52;10.40;99.90
12726;DHT22;6427;49.754;6.106;2022-11-15T05:46:20;10.40;99.90
12726;DHT22;6427;49.754;6.106;2022-11-15T05:48:48;10.40;99.90
12726;DHT22;6427;49.754;6.106;2022-11-15T05:51:15;10.40;99.90
12726;DHT22;6427;49.754;6.106;2022-11-15T05:53:43;10.40;99.90
12726;DHT22;6427;49.754;6.106;2022-11-15T05:56:10;10.40;99.90
12726;DHT22;6427;49.754;6.106;2022-11-15T05:58:38;10.40;99.90
12726;DHT22;6427;49.754;6.106;2022-11-15T06:01:06;10.40;99.90
12726;DHT22;6427;49.754;6.106;2022-11-15T06:03:34;10.40;99.90
12726;DHT22;6427;49.754;6.106;2022-11-15T06:06:02;10.40;99.90
12726;DHT22;6427;49.754;6.106;2022-11-15T06:08:29;10.40;99.90
12726;DHT22;6427;49.754;6.106;2022-11-15T06:11:02;10.40;99.90
12726;DHT22;6427;49.754;6.106;2022-11-15T06:13:24;10.30;99.90
12726;DHT22;6427;49.754;6.106;2022-11-15T06:15:54;10.30;99.90
12726;DHT22;6427;49.754;6.106;2022-11-15T06:18:20;10.20;99.90
12726;DHT22;6427;49.754;6.106;2022-11-15T06:20:48;10.20;99.90
12726;DHT22;6427;49.754;6.106;2022-11-15T06:23:15;10.20;99.90
12726;DHT22;6427;49.754;6.106;2022-11-15T06:25:43;10.20;99.90
12726;DHT22;6427;49.754;6.106;2022-11-15T06:28:10;10.20;99.90
12726;DHT22;6427;49.754;6.106;2022-11-15T06:30:38;10.20;99.90
12726;DHT22;6427;49.754;6.106;2022-11-15T06:33:05;10.40;99.90
12726;DHT22;6427;49.754;6.106;2022-11-15T06:35:33;10.40;99.90
12726;DHT22;6427;49.754;6.106;2022-11-15T06:38:02;10.40;99.90
12726;DHT22;6427;49.754;6.106;2022-11-15T06:40:29;10.40;99.90
12726;DHT22;6427;49.754;6.106;2022-11-15T06:43:00;10.30;99.90
12726;DHT22;6427;49.754;6.106;2022-11-15T06:45:27;10.30;99.90
12726;DHT22;6427;49.754;6.106;2022-11-15T06:47:55;10.30;99.90
12726;DHT22;6427;49.754;6.106;2022-11-15T06:50:22;10.30;99.90
12726;DHT22;6427;49.754;6.106;2022-11-15T06:52:50;10.30;99.90
12726;DHT22;6427;49.754;6.106;2022-11-15T06:55:17;10.50;99.90
12726;DHT22;6427;49.754;6.106;2022-11-15T06:57:48;10.40;99.90
12726;DHT22;6427;49.754;6.106;2022-11-15T07:00:17;10.30;99.90
12726;DHT22;6427;49.754;6.106;2022-11-15T07:02:44;10.30;99.90
12726;DHT22;6427;49.754;6.106;2022-11-15T07:05:11;10.30;99.90
12726;DHT22;6427;49.754;6.106;2022-11-15T07:07:39;10.30;99.90
12726;DHT22;6427;49.754;6.106;2022-11-15T07:10:07;10.20;99.90
12726;DHT22;6427;49.754;6.106;2022-11-15T07:12:35;10.20;99.90
12726;DHT22;6427;49.754;6.106;2022-11-15T07:15:02;10.10;99.90
12726;DHT22;6427;49.754;6.106;2022-11-15T07:17:30;10.10;99.90
12726;DHT22;6427;49.754;6.106;2022-11-15T07:19:58;10.10;99.90
12726;DHT22;6427;49.754;6.106;2022-11-15T07:22:26;10.00;99.90
12726;DHT22;6427;49.754;6.106;2022-11-15T07:24:53;10.30;99.90
12726;DHT22;6427;49.754;6.106;2022-11-15T07:27:21;10.30;99.90
12726;DHT22;6427;49.754;6.106;2022-11-15T07:29:50;10.20;99.90
12726;DHT22;6427;49.754;6.106;2022-11-15T07:32:17;10.10;99.90
12726;DHT22;6427;49.754;6.106;2022-11-15T07:34:45;10.10;99.90
12726;DHT22;6427;49.754;6.106;2022-11-15T07:37:12;10.10;99.90
12726;DHT22;6427;49.754;6.106;2022-11-15T07:39:40;10.00;99.90
12726;DHT22;6427;49.754;6.106;2022-11-15T07:42:08;10.00;99.90
12726;DHT22;6427;49.754;6.106;2022-11-15T07:44:55;10.00;99.90
12726;DHT22;6427;49.754;6.106;2022-11-15T07:47:22;9.90;99.90
12726;DHT22;6427;49.754;6.106;2022-11-15T07:49:49;9.90;99.90
12726;DHT22;6427;49.754;6.106;2022-11-15T07:52:17;9.80;99.90
12726;DHT22;6427;49.754;6.106;2022-11-15T07:54:44;9.80;99.90
12726;DHT22;6427;49.754;6.106;2022-11-15T07:57:13;9.80;99.90
12726;DHT22;6427;49.754;6.106;2022-11-15T07:59:41;9.70;99.90
12726;DHT22;6427;49.754;6.106;2022-11-15T08:02:09;9.70;99.90
12726;DHT22;6427;49.754;6.106;2022-11-15T08:04:36;9.70;99.90
12726;DHT22;6427;49.754;6.106;2022-11-15T08:07:04;9.70;99.90
12726;DHT22;6427;49.754;6.106;2022-11-15T08:09:32;9.70;99.90
12726;DHT22;6427;49.754;6.106;2022-11-15T08:11:59;9.70;99.90
12726;DHT22;6427;49.754;6.106;2022-11-15T08:14:28;9.60;99.90
12726;DHT22;6427;49.754;6.106;2022-11-15T08:16:55;9.50;99.90
12726;DHT22;6427;49.754;6.106;2022-11-15T08:19:23;9.50;99.90
12726;DHT22;6427;49.754;6.106;2022-11-15T08:21:51;9.80;99.90
12726;DHT22;6427;49.754;6.106;2022-11-15T08:24:19;9.70;99.90
12726;DHT22;6427;49.754;6.106;2022-11-15T08:26:47;9.70;99.90
12726;DHT22;6427;49.754;6.106;2022-11-15T08:29:15;9.70;99.90
12726;DHT22;6427;49.754;6.106;2022-11-15T08:31:43;9.70;99.90
12726;DHT22;6427;49.754;6.106;2022-11-15T08:34:10;9.60;99.90
12726;DHT22;6427;49.754;6.106;2022-11-15T08:36:38;9.60;99.90
12726;DHT22;6427;49.754;6.106;2022-11-15T08:39:06;9.60;99.90
12726;DHT22;6427;49.754;6.106;2022-11-15T08:41:34;9.60;99.90
12726;DHT22;6427;49.754;6.106;2022-11-15T08:44:01;9.60;99.90
12726;DHT22;6427;49.754;6.106;2022-11-15T08:46:28;9.60;99.90
12726;DHT22;6427;49.754;6.106;2022-11-15T08:48:56;9.60;99.90
12726;DHT22;6427;49.754;6.106;2022-11-15T08:51:23;9.70;99.90
12726;DHT22;6427;49.754;6.106;2022-11-15T08:53:51;9.70;99.90
12726;DHT22;6427;49.754;6.106;2022-11-15T08:56:18;9.80;99.90
12726;DHT22;6427;49.754;6.106;2022-11-15T08:58:46;10.10;99.90
12726;DHT22;6427;49.754;6.106;2022-11-15T09:01:18;10.20;99.90
12726;DHT22;6427;49.754;6.106;2022-11-15T09:03:45;10.20;99.90
12726;DHT22;6427;49.754;6.106;2022-11-15T09:06:12;10.50;99.90
12726;DHT22;6427;49.754;6.106;2022-11-15T09:08:40;10.60;99.90
12726;DHT22;6427;49.754;6.106;2022-11-15T09:11:08;10.50;99.90
12726;DHT22;6427;49.754;6.106;2022-11-15T09:13:35;10.50;99.90
12726;DHT22;6427;49.754;6.106;2022-11-15T09:16:03;10.60;99.90
12726;DHT22;6427;49.754;6.106;2022-11-15T09:18:31;10.60;99.90
12726;DHT22;6427;49.754;6.106;2022-11-15T09:20:59;10.60;99.90
12726;DHT22;6427;49.754;6.106;2022-11-15T09:23:26;10.60;99.90
12726;DHT22;6427;49.754;6.106;2022-11-15T09:25:58;10.60;99.90
12726;DHT22;6427;49.754;6.106;2022-11-15T09:28:22;10.70;99.90
12726;DHT22;6427;49.754;6.106;2022-11-15T09:30:50;10.70;99.90
12726;DHT22;6427;49.754;6.106;2022-11-15T09:33:18;10.70;99.90
12726;DHT22;6427;49.754;6.106;2022-11-15T09:35:46;10.70;99.90
12726;DHT22;6427;49.754;6.106;2022-11-15T09:38:14;10.70;99.90
12726;DHT22;6427;49.754;6.106;2022-11-15T09:40:41;10.80;99.90
12726;DHT22;6427;49.754;6.106;2022-11-15T09:43:23;10.80;99.90
12726;DHT22;6427;49.754;6.106;2022-11-15T09:45:55;11.20;99.90
12726;DHT22;6427;49.754;6.106;2022-11-15T09:48:33;11.20;99.90
12726;DHT22;6427;49.754;6.106;2022-11-15T09:50:57;11.20;99.90
12726;DHT22;6427;49.754;6.106;2022-11-15T09:53:46;11.40;99.90
12726;DHT22;6427;49.754;6.106;2022-11-15T09:56:15;11.40;99.90
12726;DHT22;6427;49.754;6.106;2022-11-15T09:58:44;11.50;99.90
12726;DHT22;6427;49.754;6.106;2022-11-15T10:01:10;11.50;99.90
12726;DHT22;6427;49.754;6.106;2022-11-15T10:03:36;11.50;99.90
12726;DHT22;6427;49.754;6.106;2022-11-15T10:06:04;11.50;99.90
12726;DHT22;6427;49.754;6.106;2022-11-15T10:11:27;11.80;99.90
12726;DHT22;6427;49.754;6.106;2022-11-15T10:13:44;11.80;99.90
12726;DHT22;6427;49.754;6.106;2022-11-15T10:16:40;11.80;99.90
12726;DHT22;6427;49.754;6.106;2022-11-15T10:19:23;11.90;99.90
12726;DHT22;6427;49.754;6.106;2022-11-15T10:24:45;12.00;99.90
12726;DHT22;6427;49.754;6.106;2022-11-15T10:27:17;12.10;99.90
12726;DHT22;6427;49.754;6.106;2022-11-15T10:29:49;12.40;99.90
12726;DHT22;6427;49.754;6.106;2022-11-15T10:32:18;12.40;99.90
12726;DHT22;6427;49.754;6.106;2022-11-15T10:34:43;12.40;99.90
12726;DHT22;6427;49.754;6.106;2022-11-15T10:37:11;12.40;99.90
12726;DHT22;6427;49.754;6.106;2022-11-15T10:39:39;12.40;99.90
12726;DHT22;6427;49.754;6.106;2022-11-15T10:42:25;12.70;99.90
12726;DHT22;6427;49.754;6.106;2022-11-15T10:44:46;12.70;99.90
12726;DHT22;6427;49.754;6.106;2022-11-15T10:47:24;12.80;99.90
12726;DHT22;6427;49.754;6.106;2022-11-15T10:49:58;12.80;99.90
12726;DHT22;6427;49.754;6.106;2022-11-15T10:52:25;12.90;99.90
12726;DHT22;6427;49.754;6.106;2022-11-15T10:55:04;12.90;99.90
12726;DHT22;6427;49.754;6.106;2022-11-15T10:57:31;13.00;99.90
12726;DHT22;6427;49.754;6.106;2022-11-15T11:00:04;13.00;99.90
12726;DHT22;6427;49.754;6.106;2022-11-15T11:02:32;13.00;99.90
12726;DHT22;6427;49.754;6.106;2022-11-15T11:04:59;13.00;99.90
12726;DHT22;6427;49.754;6.106;2022-11-15T11:07:30;13.00;99.90
12726;DHT22;6427;49.754;6.106;2022-11-15T11:10:00;13.00;99.90
12726;DHT22;6427;49.754;6.106;2022-11-15T11:12:32;13.00;99.90
12726;DHT22;6427;49.754;6.106;2022-11-15T11:15:00;13.00;99.90
12726;DHT22;6427;49.754;6.106;2022-11-15T11:17:42;13.20;99.90
12726;DHT22;6427;49.754;6.106;2022-11-15T11:25:56;13.10;99.90
12726;DHT22;6427;49.754;6.106;2022-11-15T11:28:53;13.20;99.90
12726;DHT22;6427;49.754;6.106;2022-11-15T11:31:31;13.30;99.90
12726;DHT22;6427;49.754;6.106;2022-11-15T11:37:04;13.20;99.90
12726;DHT22;6427;49.754;6.106;2022-11-15T11:42:32;13.30;99.90
12726;DHT22;6427;49.754;6.106;2022-11-15T11:47:36;13.30;99.90
12726;DHT22;6427;49.754;6.106;2022-11-15T11:50:10;13.30;99.90
12726;DHT22;6427;49.754;6.106;2022-11-15T11:52:38;13.30;99.90
12726;DHT22;6427;49.754;6.106;2022-11-15T12:00:24;13.60;99.90
12726;DHT22;6427;49.754;6.106;2022-11-15T12:05:44;13.60;99.90
12726;DHT22;6427;49.754;6.106;2022-11-15T12:08:35;13.60;99.90
12726;DHT22;6427;49.754;6.106;2022-11-15T12:11:07;13.60;99.90
12726;DHT22;6427;49.754;6.106;2022-11-15T12:13:31;13.70;99.90
12726;DHT22;6427;49.754;6.106;2022-11-15T12:16:07;13.60;99.90
12726;DHT22;6427;49.754;6.106;2022-11-15T12:18:32;13.70;99.90
12726;DHT22;6427;49.754;6.106;2022-11-15T12:21:13;13.70;99.90
12726;DHT22;6427;49.754;6.106;2022-11-15T12:23:45;13.70;99.90
12726;DHT22;6427;49.754;6.106;2022-11-15T12:26:11;13.70;99.90
12726;DHT22;6427;49.754;6.106;2022-11-15T12:31:19;13.70;99.90
12726;DHT22;6427;49.754;6.106;2022-11-15T12:33:46;13.80;99.90
12726;DHT22;6427;49.754;6.106;2022-11-15T12:39:00;13.80;99.90
12726;DHT22;6427;49.754;6.106;2022-11-15T12:41:28;13.90;99.90
12726;DHT22;6427;49.754;6.106;2022-11-15T12:43:55;13.90;99.90
12726;DHT22;6427;49.754;6.106;2022-11-15T12:49:03;14.00;99.90
12726;DHT22;6427;49.754;6.106;2022-11-15T12:54:49;14.00;99.90
12726;DHT22;6427;49.754;6.106;2022-11-15T13:02:25;14.00;99.90
12726;DHT22;6427;49.754;6.106;2022-11-15T13:04:55;14.10;99.90
12726;DHT22;6427;49.754;6.106;2022-11-15T13:17:54;14.30;99.90
12726;DHT22;6427;49.754;6.106;2022-11-15T13:23:07;14.30;99.90
12726;DHT22;6427;49.754;6.106;2022-11-15T13:25:51;14.30;99.90
12726;DHT22;6427;49.754;6.106;2022-11-15T13:30:53;14.30;99.90
12726;DHT22;6427;49.754;6.106;2022-11-15T13:33:26;14.30;99.90
12726;DHT22;6427;49.754;6.106;2022-11-15T13:36:06;14.30;99.90
12726;DHT22;6427;49.754;6.106;2022-11-15T13:38:34;14.30;99.90
12726;DHT22;6427;49.754;6.106;2022-11-15T13:42:02;14.50;99.90
12726;DHT22;6427;49.754;6.106;2022-11-15T13:43:37;14.50;99.90
12726;DHT22;6427;49.754;6.106;2022-11-15T13:48:46;14.90;99.90
12726;DHT22;6427;49.754;6.106;2022-11-15T13:54:01;14.70;99.90
12726;DHT22;6427;49.754;6.106;2022-11-15T13:56:26;14.60;99.90
12726;DHT22;6427;49.754;6.106;2022-11-15T13:58:54;14.40;99.90
12726;DHT22;6427;49.754;6.106;2022-11-15T14:01:22;14.40;99.90
12726;DHT22;6427;49.754;6.106;2022-11-15T14:06:20;14.30;99.90
12726;DHT22;6427;49.754;6.106;2022-11-15T14:09:04;14.20;99.90
12726;DHT22;6427;49.754;6.106;2022-11-15T14:11:30;14.20;99.90
12726;DHT22;6427;49.754;6.106;2022-11-15T14:16:38;14.10;99.90
12726;DHT22;6427;49.754;6.106;2022-11-15T14:19:05;14.10;99.90
12726;DHT22;6427;49.754;6.106;2022-11-15T14:21:32;14.00;99.90
12726;DHT22;6427;49.754;6.106;2022-11-15T14:24:20;14.10;99.90
12726;DHT22;6427;49.754;6.106;2022-11-15T14:26:48;14.00;99.90
12726;DHT22;6427;49.754;6.106;2022-11-15T14:29:22;14.40;99.90
12726;DHT22;6427;49.754;6.106;2022-11-15T14:31:49;14.30;99.90
12726;DHT22;6427;49.754;6.106;2022-11-15T14:34:17;14.30;99.90
12726;DHT22;6427;49.754;6.106;2022-11-15T14:36:45;14.20;99.90
12726;DHT22;6427;49.754;6.106;2022-11-15T14:39:13;14.20;99.90
12726;DHT22;6427;49.754;6.106;2022-11-15T14:41:40;14.20;99.90
12726;DHT22;6427;49.754;6.106;2022-11-15T14:44:09;14.20;99.90
12726;DHT22;6427;49.754;6.106;2022-11-15T14:46:35;14.20;99.90
12726;DHT22;6427;49.754;6.106;2022-11-15T14:49:03;14.20;99.90
12726;DHT22;6427;49.754;6.106;2022-11-15T14:51:31;14.20;99.90
12726;DHT22;6427;49.754;6.106;2022-11-15T14:53:58;14.10;99.90
12726;DHT22;6427;49.754;6.106;2022-11-15T14:56:26;14.10;99.90
12726;DHT22;6427;49.754;6.106;2022-11-15T14:58:54;14.10;99.90
12726;DHT22;6427;49.754;6.106;2022-11-15T15:01:23;14.10;99.90
12726;DHT22;6427;49.754;6.106;2022-11-15T15:03:49;14.00;99.90
12726;DHT22;6427;49.754;6.106;2022-11-15T15:06:16;14.30;99.90
12726;DHT22;6427;49.754;6.106;2022-11-15T15:08:44;14.30;99.90
12726;DHT22;6427;49.754;6.106;2022-11-15T15:11:15;14.20;99.90
12726;DHT22;6427;49.754;6.106;2022-11-15T15:13:41;14.10;99.90
12726;DHT22;6427;49.754;6.106;2022-11-15T15:16:08;14.10;99.90
12726;DHT22;6427;49.754;6.106;2022-11-15T15:18:36;14.10;99.90
12726;DHT22;6427;49.754;6.106;2022-11-15T15:21:04;14.00;99.90
12726;DHT22;6427;49.754;6.106;2022-11-15T15:23:32;14.00;99.90
12726;DHT22;6427;49.754;6.106;2022-11-15T15:25:59;13.90;99.90
12726;DHT22;6427;49.754;6.106;2022-11-15T15:28:27;13.90;99.90
12726;DHT22;6427;49.754;6.106;2022-11-15T15:30:55;13.80;99.90
12726;DHT22;6427;49.754;6.106;2022-11-15T15:33:23;13.80;99.90
12726;DHT22;6427;49.754;6.106;2022-11-15T15:35:50;13.80;99.90
12726;DHT22;6427;49.754;6.106;2022-11-15T15:38:18;13.90;99.90
12726;DHT22;6427;49.754;6.106;2022-11-15T15:40:45;13.90;99.90
12726;DHT22;6427;49.754;6.106;2022-11-15T15:43:13;13.90;99.90
12726;DHT22;6427;49.754;6.106;2022-11-15T15:45:41;13.80;99.90
12726;DHT22;6427;49.754;6.106;2022-11-15T15:48:16;13.70;99.90
12726;DHT22;6427;49.754;6.106;2022-11-15T15:50:42;13.70;99.90
12726;DHT22;6427;49.754;6.106;2022-11-15T15:53:11;13.60;99.90
12726;DHT22;6427;49.754;6.106;2022-11-15T15:55:38;13.50;99.90
12726;DHT22;6427;49.754;6.106;2022-11-15T15:58:06;13.50;99.90
12726;DHT22;6427;49.754;6.106;2022-11-15T16:00:33;13.50;99.90
12726;DHT22;6427;49.754;6.106;2022-11-15T16:03:01;13.50;99.90
12726;DHT22;6427;49.754;6.106;2022-11-15T16:05:28;13.50;99.90
12726;DHT22;6427;49.754;6.106;2022-11-15T16:07:56;13.40;99.90
12726;DHT22;6427;49.754;6.106;2022-11-15T16:10:27;13.40;99.90
12726;DHT22;6427;49.754;6.106;2022-11-15T16:12:55;13.40;99.90
12726;DHT22;6427;49.754;6.106;2022-11-15T16:15:23;13.30;99.90
12726;DHT22;6427;49.754;6.106;2022-11-15T16:17:51;13.30;99.90
12726;DHT22;6427;49.754;6.106;2022-11-15T16:22:54;13.50;99.90
12726;DHT22;6427;49.754;6.106;2022-11-15T16:25:23;13.50;99.90
12726;DHT22;6427;49.754;6.106;2022-11-15T16:27:51;13.50;99.90
12726;DHT22;6427;49.754;6.106;2022-11-15T16:30:20;13.60;99.90
12726;DHT22;6427;49.754;6.106;2022-11-15T16:32:46;13.80;99.90
12726;DHT22;6427;49.754;6.106;2022-11-15T16:35:14;13.70;99.90
12726;DHT22;6427;49.754;6.106;2022-11-15T16:37:42;13.50;99.90
12726;DHT22;6427;49.754;6.106;2022-11-15T16:40:17;13.50;99.90
12726;DHT22;6427;49.754;6.106;2022-11-15T16:42:43;13.40;99.90
12726;DHT22;6427;49.754;6.106;2022-11-15T16:45:11;13.40;99.90
12726;DHT22;6427;49.754;6.106;2022-11-15T16:47:38;13.30;99.90
12726;DHT22;6427;49.754;6.106;2022-11-15T16:50:11;13.50;99.90
12726;DHT22;6427;49.754;6.106;2022-11-15T16:52:34;13.40;99.90
12726;DHT22;6427;49.754;6.106;2022-11-15T16:55:02;13.70;99.90
12726;DHT22;6427;49.754;6.106;2022-11-15T16:57:30;13.80;99.90
12726;DHT22;6427;49.754;6.106;2022-11-15T16:59:58;13.60;99.90
12726;DHT22;6427;49.754;6.106;2022-11-15T17:02:26;13.60;99.90
12726;DHT22;6427;49.754;6.106;2022-11-15T17:04:53;13.50;99.90
12726;DHT22;6427;49.754;6.106;2022-11-15T17:07:21;13.50;99.90
12726;DHT22;6427;49.754;6.106;2022-11-15T17:09:49;13.40;99.90
12726;DHT22;6427;49.754;6.106;2022-11-15T17:12:16;13.30;99.90
12726;DHT22;6427;49.754;6.106;2022-11-15T17:14:44;13.30;99.90
12726;DHT22;6427;49.754;6.106;2022-11-15T17:17:11;13.20;99.90
12726;DHT22;6427;49.754;6.106;2022-11-15T17:19:39;13.20;99.90
12726;DHT22;6427;49.754;6.106;2022-11-15T17:22:07;13.10;99.90
12726;DHT22;6427;49.754;6.106;2022-11-15T17:24:35;13.10;99.90
12726;DHT22;6427;49.754;6.106;2022-11-15T17:27:03;13.10;99.90
12726;DHT22;6427;49.754;6.106;2022-11-15T17:29:31;13.10;99.90
12726;DHT22;6427;49.754;6.106;2022-11-15T17:31:59;13.10;99.90
12726;DHT22;6427;49.754;6.106;2022-11-15T17:34:26;13.10;99.90
12726;DHT22;6427;49.754;6.106;2022-11-15T17:36:54;13.10;99.90